sensor_id;sensor_type;location;lat;lon;timestamp;P1;durP1;ratioP1;P2;durP2;ratioP2
64936;SDS011;51452;47.698;19.050;2023-08-17T00:01:59;8.88;;;5.93;;
64936;SDS011;51452;47.698;19.050;2023-08-17T00:04:25;8.32;;;5.88;;
64936;SDS011;51452;47.698;19.050;2023-08-17T00:06:50;10.70;;;6.20;;
64936;SDS011;51452;47.698;19.050;2023-08-17T00:09:16;9.02;;;5.88;;
64936;SDS011;51452;47.698;19.050;2023-08-17T00:11:42;8.93;;;6.07;;
64936;SDS011;51452;47.698;19.050;2023-08-17T00:14:07;11.68;;;5.68;;
64936;SDS011;51452;47.698;19.050;2023-08-17T00:16:33;8.02;;;5.78;;
64936;SDS011;51452;47.698;19.050;2023-08-17T00:19:00;6.88;;;5.53;;
64936;SDS011;51452;47.698;19.050;2023-08-17T00:21:26;8.88;;;5.70;;
64936;SDS011;51452;47.698;19.050;2023-08-17T00:23:51;11.52;;;5.90;;
64936;SDS011;51452;47.698;19.050;2023-08-17T00:26:17;9.15;;;5.82;;
64936;SDS011;51452;47.698;19.050;2023-08-17T00:28:42;8.88;;;5.53;;
64936;SDS011;51452;47.698;19.050;2023-08-17T00:31:07;8.52;;;6.05;;
64936;SDS011;51452;47.698;19.050;2023-08-17T00:33:33;11.00;;;6.10;;
64936;SDS011;51452;47.698;19.050;2023-08-17T00:35:58;8.52;;;5.78;;
64936;SDS011;51452;47.698;19.050;2023-08-17T00:38:24;8.20;;;6.10;;
64936;SDS011;51452;47.698;19.050;2023-08-17T00:40:49;6.82;;;5.35;;
64936;SDS011;51452;47.698;19.050;2023-08-17T00:43:15;9.30;;;5.53;;
64936;SDS011;51452;47.698;19.050;2023-08-17T00:45:40;10.10;;;5.80;;
64936;SDS011;51452;47.698;19.050;2023-08-17T00:48:06;12.95;;;6.40;;
64936;SDS011;51452;47.698;19.050;2023-08-17T00:50:33;11.07;;;6.07;;
64936;SDS011;51452;47.698;19.050;2023-08-17T00:53:00;9.10;;;6.40;;
64936;SDS011;51452;47.698;19.050;2023-08-17T00:55:26;11.70;;;6.38;;
64936;SDS011;51452;47.698;19.050;2023-08-17T00:57:53;9.18;;;5.63;;
64936;SDS011;51452;47.698;19.050;2023-08-17T01:00:20;8.35;;;6.43;;
64936;SDS011;51452;47.698;19.050;2023-08-17T01:02:47;8.90;;;5.90;;
64936;SDS011;51452;47.698;19.050;2023-08-17T01:05:12;6.00;;;4.97;;
64936;SDS011;51452;47.698;19.050;2023-08-17T01:07:38;8.05;;;5.85;;
64936;SDS011;51452;47.698;19.050;2023-08-17T01:10:04;9.35;;;6.00;;
64936;SDS011;51452;47.698;19.050;2023-08-17T01:12:36;6.85;;;5.25;;
64936;SDS011;51452;47.698;19.050;2023-08-17T01:20:22;9.97;;;5.70;;
64936;SDS011;51452;47.698;19.050;2023-08-17T01:22:49;8.45;;;5.22;;
64936;SDS011;51452;47.698;19.050;2023-08-17T01:25:16;7.20;;;5.65;;
64936;SDS011;51452;47.698;19.050;2023-08-17T01:27:43;8.60;;;5.80;;
64936;SDS011;51452;47.698;19.050;2023-08-17T01:30:09;11.05;;;5.85;;
64936;SDS011;51452;47.698;19.050;2023-08-17T01:32:37;8.63;;;6.03;;
64936;SDS011;51452;47.698;19.050;2023-08-17T01:37:58;8.82;;;6.03;;
64936;SDS011;51452;47.698;19.050;2023-08-17T01:40:28;8.55;;;5.55;;
64936;SDS011;51452;47.698;19.050;2023-08-17T01:42:57;9.80;;;5.75;;
64936;SDS011;51452;47.698;19.050;2023-08-17T01:45:24;8.98;;;5.70;;
64936;SDS011;51452;47.698;19.050;2023-08-17T01:47:50;9.90;;;6.57;;
64936;SDS011;51452;47.698;19.050;2023-08-17T01:50:15;10.05;;;6.20;;
64936;SDS011;51452;47.698;19.050;2023-08-17T01:52:41;9.05;;;6.45;;
64936;SDS011;51452;47.698;19.050;2023-08-17T01:55:07;12.30;;;6.47;;
64936;SDS011;51452;47.698;19.050;2023-08-17T01:57:33;7.97;;;6.00;;
64936;SDS011;51452;47.698;19.050;2023-08-17T02:00:00;10.73;;;6.10;;
64936;SDS011;51452;47.698;19.050;2023-08-17T02:02:25;11.35;;;6.55;;
64936;SDS011;51452;47.698;19.050;2023-08-17T02:04:50;10.55;;;6.28;;
64936;SDS011;51452;47.698;19.050;2023-08-17T02:07:16;9.45;;;6.65;;
64936;SDS011;51452;47.698;19.050;2023-08-17T02:09:41;8.23;;;6.47;;
64936;SDS011;51452;47.698;19.050;2023-08-17T02:12:06;12.00;;;6.82;;
64936;SDS011;51452;47.698;19.050;2023-08-17T02:14:33;12.13;;;6.35;;
64936;SDS011;51452;47.698;19.050;2023-08-17T02:16:58;12.15;;;6.85;;
64936;SDS011;51452;47.698;19.050;2023-08-17T02:19:24;9.02;;;6.78;;
64936;SDS011;51452;47.698;19.050;2023-08-17T02:21:49;11.15;;;6.95;;
64936;SDS011;51452;47.698;19.050;2023-08-17T02:24:15;9.73;;;6.15;;
64936;SDS011;51452;47.698;19.050;2023-08-17T02:26:40;11.68;;;7.55;;
64936;SDS011;51452;47.698;19.050;2023-08-17T02:29:05;8.18;;;6.93;;
64936;SDS011;51452;47.698;19.050;2023-08-17T02:31:31;11.30;;;6.93;;
64936;SDS011;51452;47.698;19.050;2023-08-17T02:33:56;9.52;;;6.07;;
64936;SDS011;51452;47.698;19.050;2023-08-17T02:36:30;9.85;;;6.68;;
64936;SDS011;51452;47.698;19.050;2023-08-17T02:38:56;11.20;;;6.97;;
64936;SDS011;51452;47.698;19.050;2023-08-17T02:41:21;11.65;;;6.50;;
64936;SDS011;51452;47.698;19.050;2023-08-17T02:43:47;10.48;;;6.65;;
64936;SDS011;51452;47.698;19.050;2023-08-17T02:46:12;9.23;;;6.50;;
64936;SDS011;51452;47.698;19.050;2023-08-17T02:48:38;9.30;;;6.57;;
64936;SDS011;51452;47.698;19.050;2023-08-17T02:51:03;8.77;;;6.38;;
64936;SDS011;51452;47.698;19.050;2023-08-17T02:53:29;8.23;;;6.80;;
64936;SDS011;51452;47.698;19.050;2023-08-17T02:55:54;11.52;;;6.68;;
64936;SDS011;51452;47.698;19.050;2023-08-17T02:58:19;12.43;;;6.80;;
64936;SDS011;51452;47.698;19.050;2023-08-17T03:00:45;10.65;;;6.50;;
64936;SDS011;51452;47.698;19.050;2023-08-17T03:03:10;9.95;;;6.95;;
64936;SDS011;51452;47.698;19.050;2023-08-17T03:05:36;12.25;;;7.28;;
64936;SDS011;51452;47.698;19.050;2023-08-17T03:08:01;8.85;;;6.55;;
64936;SDS011;51452;47.698;19.050;2023-08-17T03:10:27;11.85;;;6.95;;
64936;SDS011;51452;47.698;19.050;2023-08-17T03:12:52;10.38;;;6.57;;
64936;SDS011;51452;47.698;19.050;2023-08-17T03:15:18;9.13;;;6.65;;
64936;SDS011;51452;47.698;19.050;2023-08-17T03:17:43;8.35;;;6.38;;
64936;SDS011;51452;47.698;19.050;2023-08-17T03:20:08;11.05;;;6.50;;
64936;SDS011;51452;47.698;19.050;2023-08-17T03:22:34;8.70;;;6.45;;
64936;SDS011;51452;47.698;19.050;2023-08-17T03:25:00;10.68;;;6.53;;
64936;SDS011;51452;47.698;19.050;2023-08-17T03:27:25;10.73;;;6.38;;
64936;SDS011;51452;47.698;19.050;2023-08-17T03:29:51;9.48;;;6.75;;
64936;SDS011;51452;47.698;19.050;2023-08-17T03:32:16;8.00;;;6.45;;
64936;SDS011;51452;47.698;19.050;2023-08-17T03:34:42;9.60;;;6.53;;
64936;SDS011;51452;47.698;19.050;2023-08-17T03:37:07;9.63;;;6.43;;
64936;SDS011;51452;47.698;19.050;2023-08-17T03:39:33;8.25;;;6.60;;
64936;SDS011;51452;47.698;19.050;2023-08-17T03:41:58;8.40;;;6.57;;
64936;SDS011;51452;47.698;19.050;2023-08-17T03:44:24;10.05;;;6.47;;
64936;SDS011;51452;47.698;19.050;2023-08-17T03:46:49;7.45;;;5.95;;
64936;SDS011;51452;47.698;19.050;2023-08-17T03:49:14;8.77;;;7.05;;
64936;SDS011;51452;47.698;19.050;2023-08-17T03:51:40;7.43;;;6.18;;
64936;SDS011;51452;47.698;19.050;2023-08-17T03:54:05;11.43;;;6.55;;
64936;SDS011;51452;47.698;19.050;2023-08-17T03:56:31;14.60;;;6.30;;
64936;SDS011;51452;47.698;19.050;2023-08-17T03:58:56;13.18;;;7.03;;
64936;SDS011;51452;47.698;19.050;2023-08-17T04:01:21;8.60;;;6.80;;
64936;SDS011;51452;47.698;19.050;2023-08-17T04:03:47;10.50;;;6.57;;
64936;SDS011;51452;47.698;19.050;2023-08-17T04:06:12;11.27;;;5.78;;
64936;SDS011;51452;47.698;19.050;2023-08-17T04:08:38;8.05;;;6.00;;
64936;SDS011;51452;47.698;19.050;2023-08-17T04:11:03;10.80;;;5.88;;
64936;SDS011;51452;47.698;19.050;2023-08-17T04:13:29;9.27;;;5.88;;
64936;SDS011;51452;47.698;19.050;2023-08-17T04:15:55;12.00;;;6.38;;
64936;SDS011;51452;47.698;19.050;2023-08-17T04:18:20;8.70;;;5.78;;
64936;SDS011;51452;47.698;19.050;2023-08-17T04:20:46;7.45;;;5.78;;
64936;SDS011;51452;47.698;19.050;2023-08-17T04:23:11;10.48;;;5.63;;
64936;SDS011;51452;47.698;19.050;2023-08-17T04:25:36;11.15;;;5.95;;
64936;SDS011;51452;47.698;19.050;2023-08-17T04:28:02;9.20;;;5.40;;
64936;SDS011;51452;47.698;19.050;2023-08-17T04:30:27;13.18;;;6.00;;
64936;SDS011;51452;47.698;19.050;2023-08-17T04:32:53;9.50;;;5.85;;
64936;SDS011;51452;47.698;19.050;2023-08-17T04:35:19;6.80;;;6.10;;
64936;SDS011;51452;47.698;19.050;2023-08-17T04:37:45;7.13;;;5.78;;
64936;SDS011;51452;47.698;19.050;2023-08-17T04:40:12;9.40;;;6.90;;
64936;SDS011;51452;47.698;19.050;2023-08-17T04:42:37;9.00;;;5.90;;
64936;SDS011;51452;47.698;19.050;2023-08-17T04:45:03;8.70;;;5.85;;
64936;SDS011;51452;47.698;19.050;2023-08-17T04:47:28;9.23;;;5.85;;
64936;SDS011;51452;47.698;19.050;2023-08-17T04:49:54;7.22;;;5.75;;
64936;SDS011;51452;47.698;19.050;2023-08-17T04:52:19;6.85;;;5.45;;
64936;SDS011;51452;47.698;19.050;2023-08-17T04:54:45;9.25;;;5.95;;
64936;SDS011;51452;47.698;19.050;2023-08-17T04:57:10;11.05;;;5.80;;
64936;SDS011;51452;47.698;19.050;2023-08-17T04:59:36;10.57;;;6.82;;
64936;SDS011;51452;47.698;19.050;2023-08-17T05:02:01;8.93;;;5.35;;
64936;SDS011;51452;47.698;19.050;2023-08-17T05:04:27;7.68;;;5.53;;
64936;SDS011;51452;47.698;19.050;2023-08-17T05:06:55;9.40;;;5.30;;
64936;SDS011;51452;47.698;19.050;2023-08-17T05:09:20;6.25;;;4.90;;
64936;SDS011;51452;47.698;19.050;2023-08-17T05:11:46;9.38;;;5.45;;
64936;SDS011;51452;47.698;19.050;2023-08-17T05:14:11;8.43;;;5.57;;
64936;SDS011;51452;47.698;19.050;2023-08-17T05:16:37;8.20;;;5.20;;
64936;SDS011;51452;47.698;19.050;2023-08-17T05:19:02;9.35;;;5.25;;
64936;SDS011;51452;47.698;19.050;2023-08-17T05:21:28;7.03;;;5.35;;
64936;SDS011;51452;47.698;19.050;2023-08-17T05:23:54;9.35;;;5.32;;
64936;SDS011;51452;47.698;19.050;2023-08-17T05:26:20;6.95;;;5.00;;
64936;SDS011;51452;47.698;19.050;2023-08-17T05:28:45;6.25;;;5.30;;
64936;SDS011;51452;47.698;19.050;2023-08-17T05:31:11;9.00;;;5.10;;
64936;SDS011;51452;47.698;19.050;2023-08-17T05:33:39;11.65;;;5.45;;
64936;SDS011;51452;47.698;19.050;2023-08-17T05:36:07;7.07;;;5.07;;
64936;SDS011;51452;47.698;19.050;2023-08-17T05:38:36;7.85;;;5.03;;
64936;SDS011;51452;47.698;19.050;2023-08-17T05:41:01;8.25;;;4.88;;
64936;SDS011;51452;47.698;19.050;2023-08-17T05:43:32;6.85;;;4.68;;
64936;SDS011;51452;47.698;19.050;2023-08-17T05:45:57;6.05;;;4.80;;
64936;SDS011;51452;47.698;19.050;2023-08-17T05:48:26;6.82;;;4.10;;
64936;SDS011;51452;47.698;19.050;2023-08-17T05:50:51;9.20;;;6.07;;
64936;SDS011;51452;47.698;19.050;2023-08-17T05:53:17;9.63;;;5.35;;
64936;SDS011;51452;47.698;19.050;2023-08-17T05:55:42;7.93;;;4.90;;
64936;SDS011;51452;47.698;19.050;2023-08-17T05:58:08;10.40;;;5.30;;
64936;SDS011;51452;47.698;19.050;2023-08-17T06:00:33;5.53;;;4.32;;
64936;SDS011;51452;47.698;19.050;2023-08-17T06:03:02;11.25;;;5.53;;
64936;SDS011;51452;47.698;19.050;2023-08-17T06:05:28;7.38;;;4.88;;
64936;SDS011;51452;47.698;19.050;2023-08-17T06:07:54;8.15;;;5.15;;
64936;SDS011;51452;47.698;19.050;2023-08-17T06:10:20;7.90;;;4.95;;
64936;SDS011;51452;47.698;19.050;2023-08-17T06:12:49;6.00;;;4.80;;
64936;SDS011;51452;47.698;19.050;2023-08-17T06:15:16;5.65;;;4.78;;
64936;SDS011;51452;47.698;19.050;2023-08-17T06:17:41;8.85;;;5.95;;
64936;SDS011;51452;47.698;19.050;2023-08-17T06:20:08;7.57;;;5.10;;
64936;SDS011;51452;47.698;19.050;2023-08-17T06:22:35;10.10;;;5.22;;
64936;SDS011;51452;47.698;19.050;2023-08-17T06:25:00;8.65;;;4.90;;
64936;SDS011;51452;47.698;19.050;2023-08-17T06:27:26;7.93;;;4.80;;
64936;SDS011;51452;47.698;19.050;2023-08-17T06:29:51;8.43;;;5.07;;
64936;SDS011;51452;47.698;19.050;2023-08-17T06:32:17;7.90;;;4.72;;
64936;SDS011;51452;47.698;19.050;2023-08-17T06:34:42;7.00;;;5.00;;
64936;SDS011;51452;47.698;19.050;2023-08-17T06:37:08;8.20;;;4.80;;
64936;SDS011;51452;47.698;19.050;2023-08-17T06:39:33;9.52;;;4.90;;
64936;SDS011;51452;47.698;19.050;2023-08-17T06:41:58;7.07;;;5.50;;
64936;SDS011;51452;47.698;19.050;2023-08-17T06:44:24;8.55;;;4.95;;
64936;SDS011;51452;47.698;19.050;2023-08-17T06:46:49;7.55;;;5.10;;
64936;SDS011;51452;47.698;19.050;2023-08-17T06:49:15;7.50;;;4.85;;
64936;SDS011;51452;47.698;19.050;2023-08-17T06:51:40;7.72;;;4.70;;
64936;SDS011;51452;47.698;19.050;2023-08-17T06:54:07;7.00;;;4.90;;
64936;SDS011;51452;47.698;19.050;2023-08-17T06:56:33;9.43;;;4.57;;
64936;SDS011;51452;47.698;19.050;2023-08-17T06:58:59;8.40;;;4.80;;
64936;SDS011;51452;47.698;19.050;2023-08-17T07:01:24;10.10;;;5.10;;
64936;SDS011;51452;47.698;19.050;2023-08-17T07:03:50;9.48;;;5.25;;
64936;SDS011;51452;47.698;19.050;2023-08-17T07:06:15;8.65;;;5.35;;
64936;SDS011;51452;47.698;19.050;2023-08-17T07:08:40;9.80;;;5.35;;
64936;SDS011;51452;47.698;19.050;2023-08-17T07:11:14;7.47;;;4.78;;
64936;SDS011;51452;47.698;19.050;2023-08-17T07:13:40;8.32;;;5.22;;
64936;SDS011;51452;47.698;19.050;2023-08-17T07:16:05;7.22;;;4.88;;
64936;SDS011;51452;47.698;19.050;2023-08-17T07:18:31;9.82;;;5.13;;
64936;SDS011;51452;47.698;19.050;2023-08-17T07:20:57;7.10;;;5.18;;
64936;SDS011;51452;47.698;19.050;2023-08-17T07:23:22;10.55;;;5.22;;
64936;SDS011;51452;47.698;19.050;2023-08-17T07:25:48;12.95;;;5.63;;
64936;SDS011;51452;47.698;19.050;2023-08-17T07:28:13;6.93;;;5.15;;
64936;SDS011;51452;47.698;19.050;2023-08-17T07:30:40;6.10;;;5.22;;
64936;SDS011;51452;47.698;19.050;2023-08-17T07:33:06;7.88;;;5.25;;
64936;SDS011;51452;47.698;19.050;2023-08-17T07:35:31;8.23;;;5.70;;
64936;SDS011;51452;47.698;19.050;2023-08-17T07:37:56;10.65;;;5.68;;
64936;SDS011;51452;47.698;19.050;2023-08-17T07:40:22;7.63;;;5.53;;
64936;SDS011;51452;47.698;19.050;2023-08-17T07:42:47;8.75;;;5.80;;
64936;SDS011;51452;47.698;19.050;2023-08-17T07:45:13;11.05;;;5.50;;
64936;SDS011;51452;47.698;19.050;2023-08-17T07:47:38;11.23;;;5.57;;
64936;SDS011;51452;47.698;19.050;2023-08-17T07:50:04;9.68;;;6.05;;
64936;SDS011;51452;47.698;19.050;2023-08-17T07:52:30;7.60;;;5.25;;
64936;SDS011;51452;47.698;19.050;2023-08-17T07:54:56;5.72;;;4.15;;
64936;SDS011;51452;47.698;19.050;2023-08-17T07:57:21;6.70;;;4.82;;
64936;SDS011;51452;47.698;19.050;2023-08-17T07:59:47;5.80;;;4.60;;
64936;SDS011;51452;47.698;19.050;2023-08-17T08:02:13;8.02;;;4.45;;
64936;SDS011;51452;47.698;19.050;2023-08-17T08:04:38;5.95;;;4.38;;
64936;SDS011;51452;47.698;19.050;2023-08-17T08:07:04;5.45;;;4.60;;
64936;SDS011;51452;47.698;19.050;2023-08-17T08:09:29;9.43;;;4.65;;
64936;SDS011;51452;47.698;19.050;2023-08-17T08:11:54;7.88;;;4.43;;
64936;SDS011;51452;47.698;19.050;2023-08-17T08:14:20;8.32;;;5.22;;
64936;SDS011;51452;47.698;19.050;2023-08-17T08:16:45;7.22;;;5.13;;
64936;SDS011;51452;47.698;19.050;2023-08-17T08:19:12;9.80;;;5.57;;
64936;SDS011;51452;47.698;19.050;2023-08-17T08:21:37;6.45;;;4.80;;
64936;SDS011;51452;47.698;19.050;2023-08-17T08:24:02;6.38;;;5.28;;
64936;SDS011;51452;47.698;19.050;2023-08-17T08:26:28;15.00;;;5.55;;
64936;SDS011;51452;47.698;19.050;2023-08-17T08:28:53;9.07;;;5.07;;
64936;SDS011;51452;47.698;19.050;2023-08-17T08:31:19;8.30;;;5.10;;
64936;SDS011;51452;47.698;19.050;2023-08-17T08:33:44;7.78;;;5.63;;
64936;SDS011;51452;47.698;19.050;2023-08-17T08:36:10;9.57;;;5.20;;
64936;SDS011;51452;47.698;19.050;2023-08-17T08:38:35;7.72;;;5.28;;
64936;SDS011;51452;47.698;19.050;2023-08-17T08:41:01;6.85;;;5.28;;
64936;SDS011;51452;47.698;19.050;2023-08-17T08:43:27;7.90;;;5.35;;
64936;SDS011;51452;47.698;19.050;2023-08-17T08:45:53;5.85;;;4.97;;
64936;SDS011;51452;47.698;19.050;2023-08-17T08:48:20;7.97;;;5.30;;
64936;SDS011;51452;47.698;19.050;2023-08-17T08:50:47;12.55;;;5.40;;
64936;SDS011;51452;47.698;19.050;2023-08-17T08:53:15;7.40;;;4.78;;
64936;SDS011;51452;47.698;19.050;2023-08-17T08:56:15;7.90;;;4.80;;
64936;SDS011;51452;47.698;19.050;2023-08-17T08:58:36;12.00;;;4.90;;
64936;SDS011;51452;47.698;19.050;2023-08-17T09:01:03;5.43;;;4.30;;
64936;SDS011;51452;47.698;19.050;2023-08-17T09:03:29;6.55;;;4.07;;
64936;SDS011;51452;47.698;19.050;2023-08-17T09:05:57;6.30;;;4.05;;
64936;SDS011;51452;47.698;19.050;2023-08-17T09:08:30;5.82;;;3.38;;
64936;SDS011;51452;47.698;19.050;2023-08-17T09:10:55;5.47;;;3.20;;
64936;SDS011;51452;47.698;19.050;2023-08-17T09:13:21;4.60;;;3.22;;
64936;SDS011;51452;47.698;19.050;2023-08-17T09:15:46;4.25;;;2.90;;
64936;SDS011;51452;47.698;19.050;2023-08-17T09:18:12;4.47;;;2.80;;
64936;SDS011;51452;47.698;19.050;2023-08-17T09:20:44;3.80;;;3.00;;
64936;SDS011;51452;47.698;19.050;2023-08-17T09:23:12;5.93;;;2.95;;
64936;SDS011;51452;47.698;19.050;2023-08-17T09:25:41;4.07;;;2.90;;
64936;SDS011;51452;47.698;19.050;2023-08-17T09:28:12;4.32;;;2.90;;
64936;SDS011;51452;47.698;19.050;2023-08-17T09:30:58;4.38;;;3.03;;
64936;SDS011;51452;47.698;19.050;2023-08-17T09:33:26;4.93;;;3.33;;
64936;SDS011;51452;47.698;19.050;2023-08-17T09:35:55;4.13;;;2.80;;
64936;SDS011;51452;47.698;19.050;2023-08-17T09:38:22;4.40;;;3.05;;
64936;SDS011;51452;47.698;19.050;2023-08-17T09:40:48;7.35;;;3.63;;
64936;SDS011;51452;47.698;19.050;2023-08-17T09:43:14;5.05;;;3.30;;
64936;SDS011;51452;47.698;19.050;2023-08-17T09:45:40;3.67;;;3.33;;
64936;SDS011;51452;47.698;19.050;2023-08-17T09:48:07;4.35;;;3.13;;
64936;SDS011;51452;47.698;19.050;2023-08-17T09:50:33;6.43;;;3.70;;
64936;SDS011;51452;47.698;19.050;2023-08-17T09:52:59;3.97;;;3.10;;
64936;SDS011;51452;47.698;19.050;2023-08-17T09:55:25;4.70;;;3.10;;
64936;SDS011;51452;47.698;19.050;2023-08-17T09:57:51;5.63;;;3.22;;
64936;SDS011;51452;47.698;19.050;2023-08-17T10:00:17;4.32;;;3.28;;
64936;SDS011;51452;47.698;19.050;2023-08-17T10:02:44;3.40;;;3.10;;
64936;SDS011;51452;47.698;19.050;2023-08-17T10:05:13;5.15;;;3.55;;
64936;SDS011;51452;47.698;19.050;2023-08-17T10:07:43;4.15;;;3.13;;
64936;SDS011;51452;47.698;19.050;2023-08-17T10:10:12;9.63;;;3.38;;
64936;SDS011;51452;47.698;19.050;2023-08-17T10:12:44;4.10;;;2.65;;
64936;SDS011;51452;47.698;19.050;2023-08-17T10:15:13;3.95;;;3.30;;
64936;SDS011;51452;47.698;19.050;2023-08-17T10:17:44;5.50;;;3.20;;
64936;SDS011;51452;47.698;19.050;2023-08-17T10:20:18;4.18;;;3.28;;
64936;SDS011;51452;47.698;19.050;2023-08-17T10:22:56;4.43;;;2.75;;
64936;SDS011;51452;47.698;19.050;2023-08-17T10:25:35;4.85;;;3.13;;
64936;SDS011;51452;47.698;19.050;2023-08-17T10:28:03;5.07;;;3.20;;
64936;SDS011;51452;47.698;19.050;2023-08-17T10:30:28;5.50;;;3.50;;
64936;SDS011;51452;47.698;19.050;2023-08-17T10:32:54;4.40;;;3.30;;
64936;SDS011;51452;47.698;19.050;2023-08-17T10:35:23;6.60;;;3.13;;
64936;SDS011;51452;47.698;19.050;2023-08-17T10:37:49;6.65;;;3.30;;
64936;SDS011;51452;47.698;19.050;2023-08-17T10:40:14;5.47;;;3.13;;
64936;SDS011;51452;47.698;19.050;2023-08-17T10:42:40;4.10;;;3.30;;
64936;SDS011;51452;47.698;19.050;2023-08-17T10:47:52;4.60;;;3.47;;
64936;SDS011;51452;47.698;19.050;2023-08-17T10:50:25;4.95;;;3.08;;
64936;SDS011;51452;47.698;19.050;2023-08-17T10:52:53;4.45;;;3.38;;
64936;SDS011;51452;47.698;19.050;2023-08-17T10:55:34;5.97;;;2.72;;
64936;SDS011;51452;47.698;19.050;2023-08-17T10:58:01;7.25;;;2.97;;
64936;SDS011;51452;47.698;19.050;2023-08-17T11:00:27;4.65;;;2.90;;
64936;SDS011;51452;47.698;19.050;2023-08-17T11:03:00;4.90;;;3.10;;
64936;SDS011;51452;47.698;19.050;2023-08-17T11:05:44;6.55;;;3.53;;
64936;SDS011;51452;47.698;19.050;2023-08-17T11:13:37;4.57;;;2.92;;
64936;SDS011;51452;47.698;19.050;2023-08-17T11:16:04;3.65;;;2.83;;
64936;SDS011;51452;47.698;19.050;2023-08-17T11:18:31;3.72;;;2.70;;
64936;SDS011;51452;47.698;19.050;2023-08-17T11:20:57;5.15;;;2.70;;
64936;SDS011;51452;47.698;19.050;2023-08-17T11:23:23;5.15;;;2.95;;
64936;SDS011;51452;47.698;19.050;2023-08-17T11:25:49;5.78;;;3.03;;
64936;SDS011;51452;47.698;19.050;2023-08-17T11:28:17;4.68;;;3.00;;
64936;SDS011;51452;47.698;19.050;2023-08-17T11:30:42;4.72;;;3.10;;
64936;SDS011;51452;47.698;19.050;2023-08-17T11:33:08;4.65;;;3.20;;
64936;SDS011;51452;47.698;19.050;2023-08-17T11:35:35;7.40;;;3.55;;
64936;SDS011;51452;47.698;19.050;2023-08-17T11:38:01;6.45;;;3.15;;
64936;SDS011;51452;47.698;19.050;2023-08-17T11:40:28;6.38;;;3.53;;
64936;SDS011;51452;47.698;19.050;2023-08-17T11:42:54;5.97;;;3.30;;
64936;SDS011;51452;47.698;19.050;2023-08-17T11:45:20;7.70;;;3.65;;
64936;SDS011;51452;47.698;19.050;2023-08-17T11:47:46;8.45;;;3.83;;
64936;SDS011;51452;47.698;19.050;2023-08-17T11:50:12;6.53;;;3.47;;
64936;SDS011;51452;47.698;19.050;2023-08-17T11:52:38;8.15;;;3.58;;
64936;SDS011;51452;47.698;19.050;2023-08-17T11:55:04;5.18;;;3.50;;
64936;SDS011;51452;47.698;19.050;2023-08-17T11:57:31;3.47;;;3.15;;
64936;SDS011;51452;47.698;19.050;2023-08-17T11:59:57;4.70;;;3.05;;
64936;SDS011;51452;47.698;19.050;2023-08-17T12:02:24;4.45;;;2.97;;
64936;SDS011;51452;47.698;19.050;2023-08-17T12:04:51;4.25;;;3.22;;
64936;SDS011;51452;47.698;19.050;2023-08-17T12:07:17;5.18;;;3.08;;
64936;SDS011;51452;47.698;19.050;2023-08-17T12:09:43;4.20;;;3.20;;
64936;SDS011;51452;47.698;19.050;2023-08-17T12:12:13;5.05;;;3.22;;
64936;SDS011;51452;47.698;19.050;2023-08-17T12:14:42;3.97;;;3.13;;
64936;SDS011;51452;47.698;19.050;2023-08-17T12:17:14;6.63;;;3.15;;
64936;SDS011;51452;47.698;19.050;2023-08-17T12:19:42;6.88;;;3.20;;
64936;SDS011;51452;47.698;19.050;2023-08-17T12:22:12;7.05;;;3.20;;
64936;SDS011;51452;47.698;19.050;2023-08-17T12:24:38;6.18;;;3.22;;
64936;SDS011;51452;47.698;19.050;2023-08-17T12:27:04;4.18;;;3.17;;
64936;SDS011;51452;47.698;19.050;2023-08-17T12:29:30;4.13;;;3.33;;
64936;SDS011;51452;47.698;19.050;2023-08-17T12:32:01;5.45;;;3.17;;
64936;SDS011;51452;47.698;19.050;2023-08-17T12:34:27;6.15;;;3.38;;
64936;SDS011;51452;47.698;19.050;2023-08-17T12:36:52;4.90;;;3.08;;
64936;SDS011;51452;47.698;19.050;2023-08-17T12:39:18;7.07;;;3.58;;
64936;SDS011;51452;47.698;19.050;2023-08-17T12:41:43;3.90;;;3.17;;
64936;SDS011;51452;47.698;19.050;2023-08-17T12:44:09;3.20;;;2.85;;
64936;SDS011;51452;47.698;19.050;2023-08-17T12:46:39;6.18;;;3.40;;
64936;SDS011;51452;47.698;19.050;2023-08-17T12:49:05;4.28;;;3.05;;
64936;SDS011;51452;47.698;19.050;2023-08-17T12:51:30;4.78;;;3.58;;
64936;SDS011;51452;47.698;19.050;2023-08-17T12:53:56;3.72;;;3.13;;
64936;SDS011;51452;47.698;19.050;2023-08-17T12:56:21;5.10;;;3.50;;
64936;SDS011;51452;47.698;19.050;2023-08-17T12:58:47;6.57;;;3.15;;
64936;SDS011;51452;47.698;19.050;2023-08-17T13:01:12;6.03;;;3.60;;
64936;SDS011;51452;47.698;19.050;2023-08-17T13:03:39;4.78;;;3.47;;
64936;SDS011;51452;47.698;19.050;2023-08-17T13:06:04;4.50;;;3.10;;
64936;SDS011;51452;47.698;19.050;2023-08-17T13:08:30;4.65;;;3.45;;
64936;SDS011;51452;47.698;19.050;2023-08-17T13:10:55;5.30;;;3.15;;
64936;SDS011;51452;47.698;19.050;2023-08-17T13:13:21;8.00;;;3.33;;
64936;SDS011;51452;47.698;19.050;2023-08-17T13:15:46;5.90;;;3.30;;
64936;SDS011;51452;47.698;19.050;2023-08-17T13:18:12;7.20;;;3.50;;
64936;SDS011;51452;47.698;19.050;2023-08-17T13:20:37;4.05;;;2.90;;
64936;SDS011;51452;47.698;19.050;2023-08-17T13:23:03;4.93;;;3.30;;
64936;SDS011;51452;47.698;19.050;2023-08-17T13:25:29;7.22;;;3.30;;
64936;SDS011;51452;47.698;19.050;2023-08-17T13:27:55;5.45;;;3.40;;
64936;SDS011;51452;47.698;19.050;2023-08-17T13:30:20;4.55;;;3.05;;
64936;SDS011;51452;47.698;19.050;2023-08-17T13:32:46;5.22;;;3.65;;
64936;SDS011;51452;47.698;19.050;2023-08-17T13:35:11;5.88;;;3.05;;
64936;SDS011;51452;47.698;19.050;2023-08-17T13:37:37;5.47;;;3.22;;
64936;SDS011;51452;47.698;19.050;2023-08-17T13:40:03;4.10;;;3.20;;
64936;SDS011;51452;47.698;19.050;2023-08-17T13:42:28;6.15;;;3.15;;
64936;SDS011;51452;47.698;19.050;2023-08-17T13:44:54;5.15;;;3.17;;
64936;SDS011;51452;47.698;19.050;2023-08-17T13:47:19;4.88;;;3.50;;
64936;SDS011;51452;47.698;19.050;2023-08-17T13:49:45;6.65;;;3.70;;
64936;SDS011;51452;47.698;19.050;2023-08-17T13:52:10;7.13;;;3.60;;
64936;SDS011;51452;47.698;19.050;2023-08-17T13:54:36;5.20;;;3.58;;
64936;SDS011;51452;47.698;19.050;2023-08-17T13:57:01;4.75;;;2.97;;
64936;SDS011;51452;47.698;19.050;2023-08-17T13:59:27;5.75;;;3.53;;
64936;SDS011;51452;47.698;19.050;2023-08-17T14:01:52;4.30;;;3.55;;
64936;SDS011;51452;47.698;19.050;2023-08-17T14:04:17;4.35;;;3.28;;
64936;SDS011;51452;47.698;19.050;2023-08-17T14:06:43;5.32;;;3.70;;
64936;SDS011;51452;47.698;19.050;2023-08-17T14:09:09;4.57;;;3.13;;
64936;SDS011;51452;47.698;19.050;2023-08-17T14:11:34;6.38;;;3.33;;
64936;SDS011;51452;47.698;19.050;2023-08-17T14:14:00;6.72;;;3.40;;
64936;SDS011;51452;47.698;19.050;2023-08-17T14:16:25;9.68;;;4.20;;
64936;SDS011;51452;47.698;19.050;2023-08-17T14:18:50;5.65;;;3.50;;
64936;SDS011;51452;47.698;19.050;2023-08-17T14:21:16;6.88;;;3.70;;
64936;SDS011;51452;47.698;19.050;2023-08-17T14:23:41;5.57;;;3.45;;
64936;SDS011;51452;47.698;19.050;2023-08-17T14:26:07;7.45;;;3.50;;
64936;SDS011;51452;47.698;19.050;2023-08-17T14:28:32;6.30;;;3.45;;
64936;SDS011;51452;47.698;19.050;2023-08-17T14:30:58;5.22;;;3.35;;
64936;SDS011;51452;47.698;19.050;2023-08-17T14:33:23;5.40;;;3.65;;
64936;SDS011;51452;47.698;19.050;2023-08-17T14:35:49;4.70;;;3.30;;
64936;SDS011;51452;47.698;19.050;2023-08-17T14:38:14;4.47;;;3.58;;
64936;SDS011;51452;47.698;19.050;2023-08-17T14:40:44;6.00;;;3.60;;
64936;SDS011;51452;47.698;19.050;2023-08-17T14:43:11;8.18;;;3.30;;
64936;SDS011;51452;47.698;19.050;2023-08-17T14:45:39;6.13;;;3.35;;